Terminal Aerodrome Forecast
Issued by NWS

Home | Current Version | Previous Version | Text Only | Print | Product List | Glossary Off
Versions: 1 2 3 4 5 6 7 8 9 10 11 12 13 14 15

059
FTUS43 KMPX 182347
TAFRWF
TAF
KRWF 182347Z 1900/1924 34007KT P6SM OVC040
     FM190300 32004KT P6SM BKN250
     FM191200 28003KT P6SM BKN250
     FM191800 27004KT P6SM SCT250=

USA.gov is the U.S. government's official web portal to all federal, state and local government web resources and services.